K&a Sp — 3FVZ3 — position and weather

sailwx.info

Track history (hours):
 
Tides and Currents Weather Stations Pressure Air Temp Water Temp Dewpoint Dewpoint Depression Visibility Wind Speed Wind Dir Waves Ship Positions

K&a Sp

Last reported at 2015-Apr-27 23:06 UTC. Time now 2015-May-30 06:23 UTC.
Position N 31°06' E 122°29'.
Warning: this ship's position is 32 days out of date.

Length 177 m; draft 10.4 m.

Type: Cargo ship. MMSI: 354085000.

Date/timePositionNaut miles runAvg speedWind from/ knotsBaromVisibWave heightAir tempDewpointWater temp
2015-Apr-27 23:06N 31°06' E 122°29'2 3.6
2015-Apr-27 22:33N 31°06' E 122°26'10 9.8
2015-Apr-27 21:33N 31°08' E 122°15'9 9.5
2015-Apr-27 20:33N 31°13' E 122°06'1111.0
2015-Apr-27 19:33N 31°16' E 121°54'1211.5
2015-Apr-27 18:33N 31°20' E 121°41'1111.3
2015-Apr-27 17:33N 31°26' E 121°30'1111.1
2015-Apr-27 16:33N 31°33' E 121°20'1313.0
2015-Apr-27 15:33N 31°42' E 121°09'1111.3
2015-Apr-27 14:33N 31°48' E 120°57'1 0.1
2015-Apr-27 09:29N 31°49' E 120°57'7 0.2
2015-Apr-26 01:22N 31°54' E 120°53'0 0.1
2015-Apr-26 00:31N 31°54' E 120°53'0 0.1
2015-Apr-25 23:31N 31°54' E 120°53'0 0.0
2015-Apr-25 21:28N 31°54' E 120°53'0 0.1
2015-Apr-25 20:22N 31°54' E 120°53'0 0.0
2015-Apr-25 19:22N 31°54' E 120°53'0 0.0
2015-Apr-25 18:28N 31°54' E 120°53'0 0.0
2015-Apr-25 17:28N 31°54' E 120°53'0 0.0
2015-Apr-25 16:28N 31°54' E 120°53'0 0.0
2015-Apr-25 15:25N 31°54' E 120°53'0 0.0
2015-Apr-25 14:07N 31°54' E 120°53'0 0.0
2015-Apr-25 13:28N 31°54' E 120°53'0 0.1
2015-Apr-25 12:10N 31°54' E 120°53'0 0.0
2015-Apr-25 11:28N 31°54' E 120°53'0 0.1
2015-Apr-25 10:31N 31°54' E 120°53'0 0.0
2015-Apr-25 09:28N 31°54' E 120°53'0 0.0
2015-Apr-25 08:22N 31°54' E 120°53'0 0.0
2015-Apr-25 07:10N 31°54' E 120°53'0 0.0
2015-Apr-25 06:22N 31°54' E 120°53'0 0.0
2015-Apr-25 05:28N 31°54' E 120°53'0 0.0
2015-Apr-25 04:28N 31°54' E 120°53'0 0.0
2015-Apr-25 03:28N 31°54' E 120°53'0 0.0
2015-Apr-25 02:28N 31°54' E 120°53'0 0.0
2015-Apr-25 01:16N 31°54' E 120°53'0 0.2
2015-Apr-25 00:22N 31°54' E 120°54'0 0.1
2015-Apr-24 23:31N 31°54' E 120°53'0 0.0
2015-Apr-24 22:28N 31°54' E 120°53'0 0.1
2015-Apr-24 21:25N 31°54' E 120°53'0 0.1
2015-Apr-24 20:28N 31°54' E 120°53'0 0.0
2015-Apr-24 19:22N 31°54' E 120°53'0 0.0
2015-Apr-24 18:22N 31°54' E 120°53'0 0.0
2015-Apr-24 17:19N 31°54' E 120°53'0 0.0
2015-Apr-24 16:28N 31°54' E 120°53'0 0.0
2015-Apr-24 15:22N 31°54' E 120°53'0 0.0
2015-Apr-24 14:27N 31°54' E 120°53'5 4.8
2015-Apr-24 13:29N 31°50' E 120°54'9 9.1
2015-Apr-24 12:33N 31°46' E 121°04'1111.3
2015-Apr-24 11:33N 31°39' E 121°14'1211.9
2015-Apr-24 10:33N 31°31' E 121°24'9 8.9
2015-Apr-24 09:33N 31°25' E 121°32'9 9.5
2015-Apr-24 08:33N 31°20' E 121°41'1313.2
2015-Apr-24 07:34N 31°10' E 121°52'1313.0
2015-Apr-24 06:33N 31°04' E 122°05'1111.4
2015-Apr-24 05:33N 31°03' E 122°18'9 9.0
2015-Apr-24 04:33N 31°01' E 122°29'8 8.4
2015-Apr-24 03:33N 30°59' E 122°38'7 7.3
2015-Apr-24 02:33N 31°02' E 122°46'0 0.1
2015-Apr-24 01:30N 31°02' E 122°46'0 0.0
2015-Apr-24 00:27N 31°02' E 122°46'0 0.1
2015-Apr-23 23:33N 31°02' E 122°46'0 0.0
2015-Apr-23 22:27N 31°02' E 122°46'0 0.0
2015-Apr-23 21:33N 31°02' E 122°46'0 0.1
2015-Apr-23 20:33N 31°02' E 122°46'0 0.1
2015-Apr-23 19:33N 31°03' E 122°46'0 0.0
2015-Apr-23 18:27N 31°03' E 122°46'0 0.0
2015-Apr-23 17:33N 31°03' E 122°46'0 0.1
2015-Apr-23 16:33N 31°02' E 122°46'0 0.1
2015-Apr-23 15:09N 31°02' E 122°46'0 0.1
2015-Apr-23 14:33N 31°02' E 122°46'0 0.1
2015-Apr-23 13:33N 31°02' E 122°46'0 0.0
2015-Apr-23 12:33N 31°02' E 122°46'0 0.0
2015-Apr-23 11:33N 31°02' E 122°46'0 0.1
2015-Apr-23 10:33N 31°02' E 122°46'0 0.0
2015-Apr-23 09:27N 31°02' E 122°46'0 0.1
2015-Apr-23 08:32N 31°02' E 122°46'0 0.1
2015-Apr-23 07:30N 31°02' E 122°46'0 0.0
2015-Apr-23 06:33N 31°02' E 122°46'0 0.1
2015-Apr-23 05:33N 31°03' E 122°46'0 0.1
2015-Apr-23 04:33N 31°03' E 122°46'0 0.0
2015-Apr-23 03:33N 31°03' E 122°46'0 0.2
2015-Apr-23 02:33N 31°02' E 122°46'1 0.6
2015-Apr-23 01:33N 31°02' E 122°46'6 6.1
2015-Apr-23 00:33N 31°03' E 122°53'0 0.0
2015-Apr-22 23:17N 31°03' E 122°53'0 0.0
2015-Apr-22 22:32N 31°03' E 122°53'0 0.0
2015-Apr-22 21:32N 31°04' E 122°53'0 0.0
2015-Apr-22 20:23N 31°04' E 122°53'0 0.0
2015-Apr-22 19:29N 31°04' E 122°53'0 0.1
2015-Apr-22 18:23N 31°04' E 122°53'0 0.1
2015-Apr-22 17:26N 31°04' E 122°53'0 0.1
2015-Apr-22 14:11N 31°03' E 122°53'0 0.1
2015-Apr-22 13:32N 31°03' E 122°53'0 0.0
2015-Apr-22 12:32N 31°03' E 122°53'0 0.0
2015-Apr-22 11:32N 31°03' E 122°53'0 0.0
2015-Apr-22 10:29N 31°03' E 122°53'0 0.0
2015-Apr-22 09:32N 31°03' E 122°53'0 0.0
2015-Apr-22 08:17N 31°03' E 122°53'0 0.0
2015-Apr-22 07:08N 31°03' E 122°53'0 0.0
2015-Apr-22 05:17N 31°04' E 122°53'0 0.1
2015-Apr-22 04:32N 31°04' E 122°53'0 0.0
2015-Apr-22 01:29N 31°03' E 122°53'0 0.1
2015-Apr-22 00:32N 31°03' E 122°53'0 0.1
2015-Apr-21 23:32N 31°03' E 122°53'0 0.1
2015-Apr-21 22:29N 31°03' E 122°53'0 0.0
2015-Apr-21 21:17N 31°03' E 122°53'0 0.0
2015-Apr-21 19:05N 31°03' E 122°53'0 0.0
2015-Apr-21 18:32N 31°03' E 122°53'0 0.2
2015-Apr-21 17:32N 31°03' E 122°53'0 0.1
2015-Apr-21 16:20N 31°03' E 122°53'0 0.0
2015-Apr-21 15:23N 31°03' E 122°53'0 0.1
2015-Apr-21 14:29N 31°03' E 122°53'0 0.1
2015-Apr-21 13:32N 31°03' E 122°53'0 0.0
2015-Apr-21 09:32N 31°03' E 122°53'0 0.1
2015-Apr-21 08:32N 31°03' E 122°53'0 0.0
2015-Apr-21 07:14N 31°03' E 122°53'0 0.0
2015-Apr-21 06:11N 31°03' E 122°53'0 0.0
2015-Apr-20 19:08N 31°03' E 122°53'0 0.0
2015-Apr-20 18:23N 31°03' E 122°53'0 0.0
2015-Apr-20 17:32N 31°03' E 122°53'0 0.1
2015-Apr-20 16:32N 31°03' E 122°53'21 1.2
2015-Apr-19 23:04N 31°05' E 122°28'611.9
2015-Apr-19 22:32N 31°06' E 122°21'1212.6
2015-Apr-19 21:34N 31°12' E 122°09'1514.7
2015-Apr-19 20:34N 31°16' E 121°52'1312.5
2015-Apr-19 19:34N 31°21' E 121°39'10 9.7
2015-Apr-19 18:33N 31°26' E 121°29'9 8.6
2015-Apr-19 17:34N 31°32' E 121°21'1211.9
2015-Apr-19 16:34N 31°40' E 121°12'1313.2
2015-Apr-19 15:32N 31°47' E 120°58'1414.6
2015-Apr-19 14:33N 31°59' E 120°50'1313.2
2015-Apr-19 13:33N 32°02' E 120°35'1111.3
2015-Apr-19 12:33N 31°59' E 120°21'1211.5
2015-Apr-19 11:33N 31°56' E 120°08'1212.5
2015-Apr-19 10:33N 32°03' E 119°56'  
Track history (hours):
 
Tides and Currents Weather Stations Pressure Air Temp Water Temp Dewpoint Dewpoint Depression Visibility Wind Speed Wind Dir Waves Ship Positions

K&a Sp

Last reported at 2015-Apr-27 23:06 UTC. Time now 2015-May-30 06:23 UTC.
Position N 31°06' E 122°29'.
Warning: this ship's position is 32 days out of date.

Length 177 m; draft 10.4 m.

Type: Cargo ship. MMSI: 354085000.

Date/timePositionNaut miles runAvg speedWind from/ knotsBaromVisibWave heightAir tempDewpointWater temp
2015-Apr-27 23:06N 31°06' E 122°29'2 3.6
2015-Apr-27 22:33N 31°06' E 122°26'10 9.8
2015-Apr-27 21:33N 31°08' E 122°15'9 9.5
2015-Apr-27 20:33N 31°13' E 122°06'1111.0
2015-Apr-27 19:33N 31°16' E 121°54'1211.5
2015-Apr-27 18:33N 31°20' E 121°41'1111.3
2015-Apr-27 17:33N 31°26' E 121°30'1111.1
2015-Apr-27 16:33N 31°33' E 121°20'1313.0
2015-Apr-27 15:33N 31°42' E 121°09'1111.3
2015-Apr-27 14:33N 31°48' E 120°57'1 0.1
2015-Apr-27 09:29N 31°49' E 120°57'7 0.2
2015-Apr-26 01:22N 31°54' E 120°53'0 0.1
2015-Apr-26 00:31N 31°54' E 120°53'0 0.1
2015-Apr-25 23:31N 31°54' E 120°53'0 0.0
2015-Apr-25 21:28N 31°54' E 120°53'0 0.1
2015-Apr-25 20:22N 31°54' E 120°53'0 0.0
2015-Apr-25 19:22N 31°54' E 120°53'0 0.0
2015-Apr-25 18:28N 31°54' E 120°53'0 0.0
2015-Apr-25 17:28N 31°54' E 120°53'0 0.0
2015-Apr-25 16:28N 31°54' E 120°53'0 0.0
2015-Apr-25 15:25N 31°54' E 120°53'0 0.0
2015-Apr-25 14:07N 31°54' E 120°53'0 0.0
2015-Apr-25 13:28N 31°54' E 120°53'0 0.1
2015-Apr-25 12:10N 31°54' E 120°53'0 0.0
2015-Apr-25 11:28N 31°54' E 120°53'0 0.1
2015-Apr-25 10:31N 31°54' E 120°53'0 0.0
2015-Apr-25 09:28N 31°54' E 120°53'0 0.0
2015-Apr-25 08:22N 31°54' E 120°53'0 0.0
2015-Apr-25 07:10N 31°54' E 120°53'0 0.0
2015-Apr-25 06:22N 31°54' E 120°53'0 0.0
2015-Apr-25 05:28N 31°54' E 120°53'0 0.0
2015-Apr-25 04:28N 31°54' E 120°53'0 0.0
2015-Apr-25 03:28N 31°54' E 120°53'0 0.0
2015-Apr-25 02:28N 31°54' E 120°53'0 0.0
2015-Apr-25 01:16N 31°54' E 120°53'0 0.2
2015-Apr-25 00:22N 31°54' E 120°54'0 0.1
2015-Apr-24 23:31N 31°54' E 120°53'0 0.0
2015-Apr-24 22:28N 31°54' E 120°53'0 0.1
2015-Apr-24 21:25N 31°54' E 120°53'0 0.1
2015-Apr-24 20:28N 31°54' E 120°53'0 0.0
2015-Apr-24 19:22N 31°54' E 120°53'0 0.0
2015-Apr-24 18:22N 31°54' E 120°53'0 0.0
2015-Apr-24 17:19N 31°54' E 120°53'0 0.0
2015-Apr-24 16:28N 31°54' E 120°53'0 0.0
2015-Apr-24 15:22N 31°54' E 120°53'0 0.0
2015-Apr-24 14:27N 31°54' E 120°53'5 4.8
2015-Apr-24 13:29N 31°50' E 120°54'9 9.1
2015-Apr-24 12:33N 31°46' E 121°04'1111.3
2015-Apr-24 11:33N 31°39' E 121°14'1211.9
2015-Apr-24 10:33N 31°31' E 121°24'9 8.9
2015-Apr-24 09:33N 31°25' E 121°32'9 9.5
2015-Apr-24 08:33N 31°20' E 121°41'1313.2
2015-Apr-24 07:34N 31°10' E 121°52'1313.0
2015-Apr-24 06:33N 31°04' E 122°05'1111.4
2015-Apr-24 05:33N 31°03' E 122°18'9 9.0
2015-Apr-24 04:33N 31°01' E 122°29'8 8.4
2015-Apr-24 03:33N 30°59' E 122°38'7 7.3
2015-Apr-24 02:33N 31°02' E 122°46'0 0.1
2015-Apr-24 01:30N 31°02' E 122°46'0 0.0
2015-Apr-24 00:27N 31°02' E 122°46'0 0.1
2015-Apr-23 23:33N 31°02' E 122°46'0 0.0
2015-Apr-23 22:27N 31°02' E 122°46'0 0.0
2015-Apr-23 21:33N 31°02' E 122°46'0 0.1
2015-Apr-23 20:33N 31°02' E 122°46'0 0.1
2015-Apr-23 19:33N 31°03' E 122°46'0 0.0
2015-Apr-23 18:27N 31°03' E 122°46'0 0.0
2015-Apr-23 17:33N 31°03' E 122°46'0 0.1
2015-Apr-23 16:33N 31°02' E 122°46'0 0.1
2015-Apr-23 15:09N 31°02' E 122°46'0 0.1
2015-Apr-23 14:33N 31°02' E 122°46'0 0.1
2015-Apr-23 13:33N 31°02' E 122°46'0 0.0
2015-Apr-23 12:33N 31°02' E 122°46'0 0.0
2015-Apr-23 11:33N 31°02' E 122°46'0 0.1
2015-Apr-23 10:33N 31°02' E 122°46'0 0.0
2015-Apr-23 09:27N 31°02' E 122°46'0 0.1
2015-Apr-23 08:32N 31°02' E 122°46'0 0.1
2015-Apr-23 07:30N 31°02' E 122°46'0 0.0
2015-Apr-23 06:33N 31°02' E 122°46'0 0.1
2015-Apr-23 05:33N 31°03' E 122°46'0 0.1
2015-Apr-23 04:33N 31°03' E 122°46'0 0.0
2015-Apr-23 03:33N 31°03' E 122°46'0 0.2
2015-Apr-23 02:33N 31°02' E 122°46'1 0.6
2015-Apr-23 01:33N 31°02' E 122°46'6 6.1
2015-Apr-23 00:33N 31°03' E 122°53'0 0.0
2015-Apr-22 23:17N 31°03' E 122°53'0 0.0
2015-Apr-22 22:32N 31°03' E 122°53'0 0.0
2015-Apr-22 21:32N 31°04' E 122°53'0 0.0
2015-Apr-22 20:23N 31°04' E 122°53'0 0.0
2015-Apr-22 19:29N 31°04' E 122°53'0 0.1
2015-Apr-22 18:23N 31°04' E 122°53'0 0.1
2015-Apr-22 17:26N 31°04' E 122°53'0 0.1
2015-Apr-22 14:11N 31°03' E 122°53'0 0.1
2015-Apr-22 13:32N 31°03' E 122°53'0 0.0
2015-Apr-22 12:32N 31°03' E 122°53'0 0.0
2015-Apr-22 11:32N 31°03' E 122°53'0 0.0
2015-Apr-22 10:29N 31°03' E 122°53'0 0.0
2015-Apr-22 09:32N 31°03' E 122°53'0 0.0
2015-Apr-22 08:17N 31°03' E 122°53'0 0.0
2015-Apr-22 07:08N 31°03' E 122°53'0 0.0
2015-Apr-22 05:17N 31°04' E 122°53'0 0.1
2015-Apr-22 04:32N 31°04' E 122°53'0 0.0
2015-Apr-22 01:29N 31°03' E 122°53'0 0.1
2015-Apr-22 00:32N 31°03' E 122°53'0 0.1
2015-Apr-21 23:32N 31°03' E 122°53'0 0.1
2015-Apr-21 22:29N 31°03' E 122°53'0 0.0
2015-Apr-21 21:17N 31°03' E 122°53'0 0.0
2015-Apr-21 19:05N 31°03' E 122°53'0 0.0
2015-Apr-21 18:32N 31°03' E 122°53'0 0.2
2015-Apr-21 17:32N 31°03' E 122°53'0 0.1
2015-Apr-21 16:20N 31°03' E 122°53'0 0.0
2015-Apr-21 15:23N 31°03' E 122°53'0 0.1
2015-Apr-21 14:29N 31°03' E 122°53'0 0.1
2015-Apr-21 13:32N 31°03' E 122°53'0 0.0
2015-Apr-21 09:32N 31°03' E 122°53'0 0.1
2015-Apr-21 08:32N 31°03' E 122°53'0 0.0
2015-Apr-21 07:14N 31°03' E 122°53'0 0.0
2015-Apr-21 06:11N 31°03' E 122°53'0 0.0
2015-Apr-20 19:08N 31°03' E 122°53'0 0.0
2015-Apr-20 18:23N 31°03' E 122°53'0 0.0
2015-Apr-20 17:32N 31°03' E 122°53'0 0.1
2015-Apr-20 16:32N 31°03' E 122°53'21 1.2
2015-Apr-19 23:04N 31°05' E 122°28'611.9
2015-Apr-19 22:32N 31°06' E 122°21'1212.6
2015-Apr-19 21:34N 31°12' E 122°09'1514.7
2015-Apr-19 20:34N 31°16' E 121°52'1312.5
2015-Apr-19 19:34N 31°21' E 121°39'10 9.7
2015-Apr-19 18:33N 31°26' E 121°29'9 8.6
2015-Apr-19 17:34N 31°32' E 121°21'1211.9
2015-Apr-19 16:34N 31°40' E 121°12'1313.2
2015-Apr-19 15:32N 31°47' E 120°58'1414.6
2015-Apr-19 14:33N 31°59' E 120°50'1313.2
2015-Apr-19 13:33N 32°02' E 120°35'1111.3
2015-Apr-19 12:33N 31°59' E 120°21'1211.5
2015-Apr-19 11:33N 31°56' E 120°08'1212.5
2015-Apr-19 10:33N 32°03' E 119°56'  

Dump ship's entire track history